sensor_id;sensor_type;location;lat;lon;timestamp;P1;durP1;ratioP1;P2;durP2;ratioP2
53052;SDS011;38934;52.690;6.184;2024-02-21T00:00:53;18.00;;;9.00;;
53052;SDS011;38934;52.690;6.184;2024-02-21T00:03:19;24.52;;;9.55;;
53052;SDS011;38934;52.690;6.184;2024-02-21T00:05:45;15.73;;;8.35;;
53052;SDS011;38934;52.690;6.184;2024-02-21T00:08:10;19.55;;;8.73;;
53052;SDS011;38934;52.690;6.184;2024-02-21T00:10:36;17.95;;;8.30;;
53052;SDS011;38934;52.690;6.184;2024-02-21T00:13:01;20.58;;;8.00;;
53052;SDS011;38934;52.690;6.184;2024-02-21T00:15:27;17.23;;;7.72;;
53052;SDS011;38934;52.690;6.184;2024-02-21T00:17:53;19.85;;;6.97;;
53052;SDS011;38934;52.690;6.184;2024-02-21T00:20:18;19.83;;;7.05;;
53052;SDS011;38934;52.690;6.184;2024-02-21T00:22:45;16.50;;;6.95;;
53052;SDS011;38934;52.690;6.184;2024-02-21T00:25:11;15.32;;;6.38;;
53052;SDS011;38934;52.690;6.184;2024-02-21T00:27:36;22.58;;;6.70;;
53052;SDS011;38934;52.690;6.184;2024-02-21T00:30:03;17.10;;;6.93;;
53052;SDS011;38934;52.690;6.184;2024-02-21T00:32:28;14.65;;;5.97;;
53052;SDS011;38934;52.690;6.184;2024-02-21T00:34:54;17.45;;;6.80;;
53052;SDS011;38934;52.690;6.184;2024-02-21T00:37:20;16.10;;;6.50;;
53052;SDS011;38934;52.690;6.184;2024-02-21T00:39:45;17.95;;;6.60;;
53052;SDS011;38934;52.690;6.184;2024-02-21T00:42:11;18.73;;;7.47;;
53052;SDS011;38934;52.690;6.184;2024-02-21T00:44:36;25.83;;;6.55;;
53052;SDS011;38934;52.690;6.184;2024-02-21T00:47:02;18.13;;;6.57;;
53052;SDS011;38934;52.690;6.184;2024-02-21T00:49:27;18.58;;;6.63;;
53052;SDS011;38934;52.690;6.184;2024-02-21T00:51:53;19.88;;;5.72;;
53052;SDS011;38934;52.690;6.184;2024-02-21T00:54:19;19.52;;;6.13;;
53052;SDS011;38934;52.690;6.184;2024-02-21T00:56:44;18.67;;;6.25;;
53052;SDS011;38934;52.690;6.184;2024-02-21T00:59:10;21.88;;;6.10;;
53052;SDS011;38934;52.690;6.184;2024-02-21T01:01:35;16.83;;;6.05;;
53052;SDS011;38934;52.690;6.184;2024-02-21T01:04:01;17.75;;;6.70;;
53052;SDS011;38934;52.690;6.184;2024-02-21T01:06:27;21.75;;;6.40;;
53052;SDS011;38934;52.690;6.184;2024-02-21T01:08:52;18.25;;;6.22;;
53052;SDS011;38934;52.690;6.184;2024-02-21T01:11:18;15.27;;;6.05;;
53052;SDS011;38934;52.690;6.184;2024-02-21T01:13:43;19.55;;;6.70;;
53052;SDS011;38934;52.690;6.184;2024-02-21T01:16:09;16.75;;;6.22;;
53052;SDS011;38934;52.690;6.184;2024-02-21T01:18:37;19.02;;;6.78;;
53052;SDS011;38934;52.690;6.184;2024-02-21T01:21:04;21.75;;;6.68;;
53052;SDS011;38934;52.690;6.184;2024-02-21T01:23:32;22.40;;;6.88;;
53052;SDS011;38934;52.690;6.184;2024-02-21T01:25:59;20.95;;;7.28;;
53052;SDS011;38934;52.690;6.184;2024-02-21T01:28:24;21.45;;;7.20;;
53052;SDS011;38934;52.690;6.184;2024-02-21T01:30:50;28.88;;;7.60;;
53052;SDS011;38934;52.690;6.184;2024-02-21T01:33:16;23.95;;;7.65;;
53052;SDS011;38934;52.690;6.184;2024-02-21T01:35:42;18.92;;;7.60;;
53052;SDS011;38934;52.690;6.184;2024-02-21T01:38:07;16.88;;;7.05;;
53052;SDS011;38934;52.690;6.184;2024-02-21T01:40:33;19.38;;;7.65;;
53052;SDS011;38934;52.690;6.184;2024-02-21T01:42:59;20.27;;;7.57;;
53052;SDS011;38934;52.690;6.184;2024-02-21T01:45:24;27.83;;;7.65;;
53052;SDS011;38934;52.690;6.184;2024-02-21T01:47:50;24.38;;;7.68;;
53052;SDS011;38934;52.690;6.184;2024-02-21T01:50:16;22.33;;;7.63;;
53052;SDS011;38934;52.690;6.184;2024-02-21T01:52:43;19.05;;;6.95;;
53052;SDS011;38934;52.690;6.184;2024-02-21T01:55:10;21.55;;;7.35;;
53052;SDS011;38934;52.690;6.184;2024-02-21T01:57:38;19.42;;;6.85;;
53052;SDS011;38934;52.690;6.184;2024-02-21T02:00:05;23.95;;;8.15;;
53052;SDS011;38934;52.690;6.184;2024-02-21T02:02:31;22.67;;;8.38;;
53052;SDS011;38934;52.690;6.184;2024-02-21T02:04:57;21.23;;;7.82;;
53052;SDS011;38934;52.690;6.184;2024-02-21T02:07:24;26.30;;;8.40;;
53052;SDS011;38934;52.690;6.184;2024-02-21T02:09:49;24.75;;;8.07;;
53052;SDS011;38934;52.690;6.184;2024-02-21T02:12:15;28.30;;;8.38;;
53052;SDS011;38934;52.690;6.184;2024-02-21T02:14:41;30.40;;;8.57;;
53052;SDS011;38934;52.690;6.184;2024-02-21T02:17:06;26.50;;;8.15;;
53052;SDS011;38934;52.690;6.184;2024-02-21T02:19:32;24.50;;;8.55;;
53052;SDS011;38934;52.690;6.184;2024-02-21T02:22:09;24.10;;;8.02;;
53052;SDS011;38934;52.690;6.184;2024-02-21T02:24:40;27.80;;;8.40;;
53052;SDS011;38934;52.690;6.184;2024-02-21T02:27:05;20.92;;;7.97;;
53052;SDS011;38934;52.690;6.184;2024-02-21T02:29:32;20.92;;;7.40;;
53052;SDS011;38934;52.690;6.184;2024-02-21T02:31:58;26.35;;;7.55;;
53052;SDS011;38934;52.690;6.184;2024-02-21T02:34:23;26.50;;;7.38;;
53052;SDS011;38934;52.690;6.184;2024-02-21T02:36:49;27.52;;;8.77;;
53052;SDS011;38934;52.690;6.184;2024-02-21T02:39:15;22.60;;;6.97;;
53052;SDS011;38934;52.690;6.184;2024-02-21T02:41:40;27.13;;;7.10;;
53052;SDS011;38934;52.690;6.184;2024-02-21T02:44:06;26.60;;;6.70;;
53052;SDS011;38934;52.690;6.184;2024-02-21T02:46:31;26.40;;;6.78;;
53052;SDS011;38934;52.690;6.184;2024-02-21T02:48:57;27.48;;;6.25;;
53052;SDS011;38934;52.690;6.184;2024-02-21T02:51:22;24.77;;;6.75;;
53052;SDS011;38934;52.690;6.184;2024-02-21T02:53:48;27.52;;;7.07;;
53052;SDS011;38934;52.690;6.184;2024-02-21T02:56:14;26.73;;;7.30;;
53052;SDS011;38934;52.690;6.184;2024-02-21T02:58:40;25.42;;;6.82;;
53052;SDS011;38934;52.690;6.184;2024-02-21T03:01:07;25.50;;;7.35;;
53052;SDS011;38934;52.690;6.184;2024-02-21T03:03:33;23.52;;;6.78;;
53052;SDS011;38934;52.690;6.184;2024-02-21T03:05:58;24.55;;;7.32;;
53052;SDS011;38934;52.690;6.184;2024-02-21T03:08:24;26.92;;;7.55;;
53052;SDS011;38934;52.690;6.184;2024-02-21T03:10:50;29.27;;;6.80;;
53052;SDS011;38934;52.690;6.184;2024-02-21T03:13:15;21.30;;;6.93;;
53052;SDS011;38934;52.690;6.184;2024-02-21T03:15:41;27.05;;;6.68;;
53052;SDS011;38934;52.690;6.184;2024-02-21T03:18:07;24.17;;;6.63;;
53052;SDS011;38934;52.690;6.184;2024-02-21T03:20:32;25.77;;;6.70;;
53052;SDS011;38934;52.690;6.184;2024-02-21T03:22:58;26.83;;;7.82;;
53052;SDS011;38934;52.690;6.184;2024-02-21T03:25:23;22.98;;;7.07;;
53052;SDS011;38934;52.690;6.184;2024-02-21T03:27:49;21.15;;;6.93;;
53052;SDS011;38934;52.690;6.184;2024-02-21T03:30:15;21.67;;;7.13;;
53052;SDS011;38934;52.690;6.184;2024-02-21T03:32:40;25.35;;;7.13;;
53052;SDS011;38934;52.690;6.184;2024-02-21T03:35:06;22.90;;;7.25;;
53052;SDS011;38934;52.690;6.184;2024-02-21T03:37:32;26.48;;;7.63;;
53052;SDS011;38934;52.690;6.184;2024-02-21T03:39:57;23.67;;;6.90;;
53052;SDS011;38934;52.690;6.184;2024-02-21T03:42:23;28.25;;;7.60;;
53052;SDS011;38934;52.690;6.184;2024-02-21T03:44:48;27.60;;;7.07;;
53052;SDS011;38934;52.690;6.184;2024-02-21T03:47:14;21.88;;;6.50;;
53052;SDS011;38934;52.690;6.184;2024-02-21T03:49:40;28.10;;;7.22;;
53052;SDS011;38934;52.690;6.184;2024-02-21T03:52:05;24.02;;;7.10;;
53052;SDS011;38934;52.690;6.184;2024-02-21T03:54:31;24.25;;;7.43;;
53052;SDS011;38934;52.690;6.184;2024-02-21T03:56:57;22.20;;;6.93;;
53052;SDS011;38934;52.690;6.184;2024-02-21T03:59:22;23.40;;;7.00;;
53052;SDS011;38934;52.690;6.184;2024-02-21T04:01:51;22.20;;;6.95;;
53052;SDS011;38934;52.690;6.184;2024-02-21T04:04:20;22.17;;;6.93;;
53052;SDS011;38934;52.690;6.184;2024-02-21T04:06:49;27.52;;;7.13;;
53052;SDS011;38934;52.690;6.184;2024-02-21T04:09:15;21.10;;;7.10;;
53052;SDS011;38934;52.690;6.184;2024-02-21T04:11:40;33.72;;;8.07;;
53052;SDS011;38934;52.690;6.184;2024-02-21T04:14:06;27.13;;;7.40;;
53052;SDS011;38934;52.690;6.184;2024-02-21T04:16:32;25.02;;;7.50;;
53052;SDS011;38934;52.690;6.184;2024-02-21T04:18:57;21.60;;;7.25;;
53052;SDS011;38934;52.690;6.184;2024-02-21T04:21:23;26.27;;;7.03;;
53052;SDS011;38934;52.690;6.184;2024-02-21T04:23:49;27.90;;;7.53;;
53052;SDS011;38934;52.690;6.184;2024-02-21T04:26:14;25.40;;;7.60;;
53052;SDS011;38934;52.690;6.184;2024-02-21T04:28:40;27.27;;;6.78;;
53052;SDS011;38934;52.690;6.184;2024-02-21T04:31:05;25.52;;;7.57;;
53052;SDS011;38934;52.690;6.184;2024-02-21T04:33:31;32.67;;;8.10;;
53052;SDS011;38934;52.690;6.184;2024-02-21T04:35:57;33.33;;;8.45;;
53052;SDS011;38934;52.690;6.184;2024-02-21T04:38:23;25.80;;;8.10;;
53052;SDS011;38934;52.690;6.184;2024-02-21T04:40:49;25.00;;;7.35;;
53052;SDS011;38934;52.690;6.184;2024-02-21T04:43:15;26.13;;;7.55;;
53052;SDS011;38934;52.690;6.184;2024-02-21T04:45:40;24.55;;;7.53;;
53052;SDS011;38934;52.690;6.184;2024-02-21T04:48:06;28.65;;;7.90;;
53052;SDS011;38934;52.690;6.184;2024-02-21T04:50:32;26.45;;;8.43;;
53052;SDS011;38934;52.690;6.184;2024-02-21T04:52:57;25.52;;;8.02;;
53052;SDS011;38934;52.690;6.184;2024-02-21T04:55:23;23.20;;;7.90;;
53052;SDS011;38934;52.690;6.184;2024-02-21T04:57:49;25.13;;;7.63;;
53052;SDS011;38934;52.690;6.184;2024-02-21T05:00:14;25.63;;;7.65;;
53052;SDS011;38934;52.690;6.184;2024-02-21T05:02:40;24.20;;;8.52;;
53052;SDS011;38934;52.690;6.184;2024-02-21T05:05:06;21.73;;;7.72;;
53052;SDS011;38934;52.690;6.184;2024-02-21T05:07:32;23.48;;;7.63;;
53052;SDS011;38934;52.690;6.184;2024-02-21T05:09:57;22.08;;;7.00;;
53052;SDS011;38934;52.690;6.184;2024-02-21T05:12:23;20.83;;;7.72;;
53052;SDS011;38934;52.690;6.184;2024-02-21T05:14:48;15.48;;;7.55;;
53052;SDS011;38934;52.690;6.184;2024-02-21T05:17:14;20.73;;;7.47;;
53052;SDS011;38934;52.690;6.184;2024-02-21T05:19:40;25.70;;;8.05;;
53052;SDS011;38934;52.690;6.184;2024-02-21T05:22:06;22.95;;;8.50;;
53052;SDS011;38934;52.690;6.184;2024-02-21T05:24:31;30.55;;;8.60;;
53052;SDS011;38934;52.690;6.184;2024-02-21T05:26:57;27.63;;;8.65;;
53052;SDS011;38934;52.690;6.184;2024-02-21T05:29:22;25.88;;;8.32;;
53052;SDS011;38934;52.690;6.184;2024-02-21T05:34:17;23.58;;;8.00;;
53052;SDS011;38934;52.690;6.184;2024-02-21T05:36:43;24.10;;;8.05;;
53052;SDS011;38934;52.690;6.184;2024-02-21T05:39:09;27.45;;;8.35;;
53052;SDS011;38934;52.690;6.184;2024-02-21T05:41:34;24.52;;;8.13;;
53052;SDS011;38934;52.690;6.184;2024-02-21T05:44:00;25.17;;;8.40;;
53052;SDS011;38934;52.690;6.184;2024-02-21T05:46:26;25.88;;;8.27;;
53052;SDS011;38934;52.690;6.184;2024-02-21T05:48:52;21.67;;;7.65;;
53052;SDS011;38934;52.690;6.184;2024-02-21T05:51:17;26.02;;;7.93;;
53052;SDS011;38934;52.690;6.184;2024-02-21T05:53:43;25.50;;;7.97;;
53052;SDS011;38934;52.690;6.184;2024-02-21T05:56:12;22.75;;;8.65;;
53052;SDS011;38934;52.690;6.184;2024-02-21T05:58:38;26.27;;;8.68;;
53052;SDS011;38934;52.690;6.184;2024-02-21T06:01:04;22.55;;;9.25;;
53052;SDS011;38934;52.690;6.184;2024-02-21T06:03:32;24.33;;;9.20;;
53052;SDS011;38934;52.690;6.184;2024-02-21T06:05:58;25.38;;;9.80;;
53052;SDS011;38934;52.690;6.184;2024-02-21T06:08:25;24.08;;;10.60;;
53052;SDS011;38934;52.690;6.184;2024-02-21T06:10:50;18.67;;;8.93;;
53052;SDS011;38934;52.690;6.184;2024-02-21T06:13:20;23.58;;;11.25;;
53052;SDS011;38934;52.690;6.184;2024-02-21T06:15:46;26.10;;;10.95;;
53052;SDS011;38934;52.690;6.184;2024-02-21T06:18:12;24.80;;;11.70;;
53052;SDS011;38934;52.690;6.184;2024-02-21T06:20:38;25.98;;;11.98;;
53052;SDS011;38934;52.690;6.184;2024-02-21T06:23:05;25.55;;;12.23;;
53052;SDS011;38934;52.690;6.184;2024-02-21T06:25:31;31.08;;;11.90;;
53052;SDS011;38934;52.690;6.184;2024-02-21T06:27:57;24.55;;;12.48;;
53052;SDS011;38934;52.690;6.184;2024-02-21T06:30:22;30.48;;;12.32;;
53052;SDS011;38934;52.690;6.184;2024-02-21T06:32:48;23.98;;;11.90;;
53052;SDS011;38934;52.690;6.184;2024-02-21T06:35:13;25.17;;;12.23;;
53052;SDS011;38934;52.690;6.184;2024-02-21T06:37:39;30.88;;;13.23;;
53052;SDS011;38934;52.690;6.184;2024-02-21T06:40:05;27.55;;;13.48;;
53052;SDS011;38934;52.690;6.184;2024-02-21T06:42:31;33.95;;;14.10;;
53052;SDS011;38934;52.690;6.184;2024-02-21T06:44:57;31.17;;;14.50;;
53052;SDS011;38934;52.690;6.184;2024-02-21T06:47:22;29.58;;;13.27;;
53052;SDS011;38934;52.690;6.184;2024-02-21T06:49:48;29.20;;;12.85;;
53052;SDS011;38934;52.690;6.184;2024-02-21T06:52:16;32.45;;;13.48;;
53052;SDS011;38934;52.690;6.184;2024-02-21T06:54:45;32.35;;;15.65;;
53052;SDS011;38934;52.690;6.184;2024-02-21T06:57:13;24.70;;;13.90;;
53052;SDS011;38934;52.690;6.184;2024-02-21T06:59:42;30.10;;;14.35;;
53052;SDS011;38934;52.690;6.184;2024-02-21T07:02:07;32.33;;;14.73;;
53052;SDS011;38934;52.690;6.184;2024-02-21T07:04:33;28.27;;;14.98;;
53052;SDS011;38934;52.690;6.184;2024-02-21T07:06:59;29.40;;;13.90;;
53052;SDS011;38934;52.690;6.184;2024-02-21T07:09:25;28.70;;;14.30;;
53052;SDS011;38934;52.690;6.184;2024-02-21T07:11:50;26.33;;;14.25;;
53052;SDS011;38934;52.690;6.184;2024-02-21T07:14:17;26.30;;;14.18;;
53052;SDS011;38934;52.690;6.184;2024-02-21T07:16:43;31.67;;;14.27;;
53052;SDS011;38934;52.690;6.184;2024-02-21T07:19:09;25.48;;;14.43;;
53052;SDS011;38934;52.690;6.184;2024-02-21T07:21:34;25.65;;;13.95;;
53052;SDS011;38934;52.690;6.184;2024-02-21T07:24:02;31.40;;;14.48;;
53052;SDS011;38934;52.690;6.184;2024-02-21T07:26:29;25.38;;;13.40;;
53052;SDS011;38934;52.690;6.184;2024-02-21T07:28:54;24.60;;;13.40;;
53052;SDS011;38934;52.690;6.184;2024-02-21T07:31:20;26.70;;;14.07;;
53052;SDS011;38934;52.690;6.184;2024-02-21T07:33:45;29.98;;;14.00;;
53052;SDS011;38934;52.690;6.184;2024-02-21T07:36:11;20.48;;;13.40;;
53052;SDS011;38934;52.690;6.184;2024-02-21T07:38:37;28.75;;;13.75;;
53052;SDS011;38934;52.690;6.184;2024-02-21T07:41:02;24.45;;;13.43;;
53052;SDS011;38934;52.690;6.184;2024-02-21T07:43:29;22.77;;;13.23;;
53052;SDS011;38934;52.690;6.184;2024-02-21T07:45:55;27.55;;;13.25;;
53052;SDS011;38934;52.690;6.184;2024-02-21T07:48:21;27.35;;;13.40;;
53052;SDS011;38934;52.690;6.184;2024-02-21T07:50:50;22.42;;;12.90;;
53052;SDS011;38934;52.690;6.184;2024-02-21T07:53:16;23.13;;;13.55;;
53052;SDS011;38934;52.690;6.184;2024-02-21T07:55:41;30.48;;;14.23;;
53052;SDS011;38934;52.690;6.184;2024-02-21T07:58:07;23.88;;;13.35;;
53052;SDS011;38934;52.690;6.184;2024-02-21T08:00:33;24.52;;;14.82;;
53052;SDS011;38934;52.690;6.184;2024-02-21T08:02:58;29.00;;;14.70;;
53052;SDS011;38934;52.690;6.184;2024-02-21T08:05:24;27.67;;;15.38;;
53052;SDS011;38934;52.690;6.184;2024-02-21T08:07:50;24.92;;;15.60;;
53052;SDS011;38934;52.690;6.184;2024-02-21T08:10:15;24.13;;;14.88;;
53052;SDS011;38934;52.690;6.184;2024-02-21T08:12:41;25.33;;;14.88;;
53052;SDS011;38934;52.690;6.184;2024-02-21T08:15:06;25.25;;;15.60;;
53052;SDS011;38934;52.690;6.184;2024-02-21T08:17:37;24.35;;;15.38;;
53052;SDS011;38934;52.690;6.184;2024-02-21T08:20:03;27.33;;;15.48;;
53052;SDS011;38934;52.690;6.184;2024-02-21T08:22:29;24.83;;;15.35;;
53052;SDS011;38934;52.690;6.184;2024-02-21T08:24:55;28.42;;;16.92;;
53052;SDS011;38934;52.690;6.184;2024-02-21T08:27:21;24.70;;;16.55;;
53052;SDS011;38934;52.690;6.184;2024-02-21T08:29:46;31.02;;;17.45;;
53052;SDS011;38934;52.690;6.184;2024-02-21T08:32:12;26.98;;;16.88;;
53052;SDS011;38934;52.690;6.184;2024-02-21T08:34:37;27.85;;;18.17;;
53052;SDS011;38934;52.690;6.184;2024-02-21T08:37:03;33.17;;;18.25;;
53052;SDS011;38934;52.690;6.184;2024-02-21T08:39:29;32.13;;;18.48;;
53052;SDS011;38934;52.690;6.184;2024-02-21T08:41:55;29.45;;;18.83;;
53052;SDS011;38934;52.690;6.184;2024-02-21T08:44:22;32.78;;;18.50;;
53052;SDS011;38934;52.690;6.184;2024-02-21T08:46:49;29.85;;;18.73;;
53052;SDS011;38934;52.690;6.184;2024-02-21T08:49:15;30.45;;;18.88;;
53052;SDS011;38934;52.690;6.184;2024-02-21T08:51:40;32.13;;;19.80;;
53052;SDS011;38934;52.690;6.184;2024-02-21T08:54:06;32.90;;;18.85;;
53052;SDS011;38934;52.690;6.184;2024-02-21T08:56:31;32.95;;;19.33;;
53052;SDS011;38934;52.690;6.184;2024-02-21T08:58:57;32.05;;;18.75;;
53052;SDS011;38934;52.690;6.184;2024-02-21T09:01:23;30.98;;;19.00;;
53052;SDS011;38934;52.690;6.184;2024-02-21T09:03:48;33.63;;;20.70;;
53052;SDS011;38934;52.690;6.184;2024-02-21T09:06:18;31.05;;;19.35;;
53052;SDS011;38934;52.690;6.184;2024-02-21T09:08:45;35.38;;;19.30;;
53052;SDS011;38934;52.690;6.184;2024-02-21T09:11:10;31.85;;;20.77;;
53052;SDS011;38934;52.690;6.184;2024-02-21T09:13:36;34.03;;;21.40;;
53052;SDS011;38934;52.690;6.184;2024-02-21T09:16:02;33.85;;;20.02;;
53052;SDS011;38934;52.690;6.184;2024-02-21T09:18:28;33.45;;;19.90;;
53052;SDS011;38934;52.690;6.184;2024-02-21T09:20:54;33.55;;;20.10;;
53052;SDS011;38934;52.690;6.184;2024-02-21T09:23:20;37.95;;;20.98;;
53052;SDS011;38934;52.690;6.184;2024-02-21T09:25:45;31.77;;;20.42;;
53052;SDS011;38934;52.690;6.184;2024-02-21T09:28:12;33.25;;;19.60;;
53052;SDS011;38934;52.690;6.184;2024-02-21T09:30:38;34.97;;;19.50;;
53052;SDS011;38934;52.690;6.184;2024-02-21T09:33:04;32.67;;;19.95;;
53052;SDS011;38934;52.690;6.184;2024-02-21T09:35:30;29.50;;;18.05;;
53052;SDS011;38934;52.690;6.184;2024-02-21T09:37:56;31.95;;;18.60;;
53052;SDS011;38934;52.690;6.184;2024-02-21T09:40:22;29.55;;;18.20;;
53052;SDS011;38934;52.690;6.184;2024-02-21T09:42:48;29.35;;;17.83;;
53052;SDS011;38934;52.690;6.184;2024-02-21T09:45:20;28.38;;;18.40;;
53052;SDS011;38934;52.690;6.184;2024-02-21T09:50:34;29.55;;;16.83;;
53052;SDS011;38934;52.690;6.184;2024-02-21T09:53:01;26.02;;;16.70;;
53052;SDS011;38934;52.690;6.184;2024-02-21T09:55:29;27.75;;;17.00;;
53052;SDS011;38934;52.690;6.184;2024-02-21T09:57:59;28.23;;;16.58;;
53052;SDS011;38934;52.690;6.184;2024-02-21T10:00:29;28.20;;;16.50;;
53052;SDS011;38934;52.690;6.184;2024-02-21T10:02:55;24.13;;;15.93;;
53052;SDS011;38934;52.690;6.184;2024-02-21T10:05:20;27.92;;;16.50;;
53052;SDS011;38934;52.690;6.184;2024-02-21T10:07:46;27.25;;;15.82;;
53052;SDS011;38934;52.690;6.184;2024-02-21T10:10:13;28.30;;;15.40;;
53052;SDS011;38934;52.690;6.184;2024-02-21T10:12:50;29.38;;;15.05;;
53052;SDS011;38934;52.690;6.184;2024-02-21T10:15:20;22.30;;;14.35;;
53052;SDS011;38934;52.690;6.184;2024-02-21T10:17:47;18.90;;;13.18;;
53052;SDS011;38934;52.690;6.184;2024-02-21T10:20:13;20.73;;;13.52;;
53052;SDS011;38934;52.690;6.184;2024-02-21T10:22:40;22.23;;;13.35;;
53052;SDS011;38934;52.690;6.184;2024-02-21T10:25:09;22.30;;;12.73;;
53052;SDS011;38934;52.690;6.184;2024-02-21T10:27:36;23.20;;;12.82;;
53052;SDS011;38934;52.690;6.184;2024-02-21T10:30:06;21.05;;;12.35;;
53052;SDS011;38934;52.690;6.184;2024-02-21T10:32:33;21.15;;;12.18;;
53052;SDS011;38934;52.690;6.184;2024-02-21T10:35:02;17.25;;;12.48;;
53052;SDS011;38934;52.690;6.184;2024-02-21T10:37:32;17.58;;;11.88;;
53052;SDS011;38934;52.690;6.184;2024-02-21T10:39:58;23.27;;;12.27;;
53052;SDS011;38934;52.690;6.184;2024-02-21T10:42:25;16.60;;;11.43;;
53052;SDS011;38934;52.690;6.184;2024-02-21T10:44:55;19.98;;;11.15;;
53052;SDS011;38934;52.690;6.184;2024-02-21T10:47:25;20.50;;;11.02;;
53052;SDS011;38934;52.690;6.184;2024-02-21T10:49:57;17.98;;;10.95;;
53052;SDS011;38934;52.690;6.184;2024-02-21T10:55:21;21.17;;;12.02;;
53052;SDS011;38934;52.690;6.184;2024-02-21T10:57:59;17.38;;;10.75;;
53052;SDS011;38934;52.690;6.184;2024-02-21T11:00:26;20.92;;;10.80;;
53052;SDS011;38934;52.690;6.184;2024-02-21T11:02:56;21.52;;;10.35;;
53052;SDS011;38934;52.690;6.184;2024-02-21T11:05:24;16.23;;;10.38;;
53052;SDS011;38934;52.690;6.184;2024-02-21T11:07:51;15.52;;;10.18;;
53052;SDS011;38934;52.690;6.184;2024-02-21T11:10:23;16.13;;;9.38;;
53052;SDS011;38934;52.690;6.184;2024-02-21T11:15:24;15.90;;;9.02;;
53052;SDS011;38934;52.690;6.184;2024-02-21T11:17:55;17.90;;;10.20;;
53052;SDS011;38934;52.690;6.184;2024-02-21T11:20:21;20.38;;;10.40;;
53052;SDS011;38934;52.690;6.184;2024-02-21T11:23:00;18.75;;;10.48;;
53052;SDS011;38934;52.690;6.184;2024-02-21T11:25:26;18.15;;;9.95;;
53052;SDS011;38934;52.690;6.184;2024-02-21T11:28:00;16.55;;;9.93;;
53052;SDS011;38934;52.690;6.184;2024-02-21T11:30:27;18.05;;;10.23;;
53052;SDS011;38934;52.690;6.184;2024-02-21T11:33:02;16.10;;;9.63;;
53052;SDS011;38934;52.690;6.184;2024-02-21T11:35:34;15.75;;;9.45;;
53052;SDS011;38934;52.690;6.184;2024-02-21T11:38:10;16.08;;;9.10;;
53052;SDS011;38934;52.690;6.184;2024-02-21T11:40:40;15.73;;;9.88;;
53052;SDS011;38934;52.690;6.184;2024-02-21T11:43:06;18.33;;;9.50;;
53052;SDS011;38934;52.690;6.184;2024-02-21T11:45:32;16.67;;;9.32;;
53052;SDS011;38934;52.690;6.184;2024-02-21T11:47:59;13.43;;;8.95;;
53052;SDS011;38934;52.690;6.184;2024-02-21T11:50:25;13.65;;;8.48;;
53052;SDS011;38934;52.690;6.184;2024-02-21T11:52:54;12.18;;;7.68;;
53052;SDS011;38934;52.690;6.184;2024-02-21T11:55:20;13.93;;;8.73;;
53052;SDS011;38934;52.690;6.184;2024-02-21T11:57:50;17.52;;;9.02;;
53052;SDS011;38934;52.690;6.184;2024-02-21T12:00:19;15.07;;;8.63;;
53052;SDS011;38934;52.690;6.184;2024-02-21T12:02:49;15.98;;;8.70;;
53052;SDS011;38934;52.690;6.184;2024-02-21T12:05:15;13.98;;;8.52;;
53052;SDS011;38934;52.690;6.184;2024-02-21T12:07:41;13.00;;;8.35;;
53052;SDS011;38934;52.690;6.184;2024-02-21T12:10:10;12.70;;;8.13;;
53052;SDS011;38934;52.690;6.184;2024-02-21T12:12:39;14.98;;;8.13;;
53052;SDS011;38934;52.690;6.184;2024-02-21T12:15:06;12.55;;;7.63;;
53052;SDS011;38934;52.690;6.184;2024-02-21T12:17:36;13.27;;;7.97;;
53052;SDS011;38934;52.690;6.184;2024-02-21T12:20:02;12.57;;;7.72;;
53052;SDS011;38934;52.690;6.184;2024-02-21T12:22:43;11.50;;;7.55;;
53052;SDS011;38934;52.690;6.184;2024-02-21T12:25:15;10.90;;;7.28;;
53052;SDS011;38934;52.690;6.184;2024-02-21T12:27:42;12.68;;;7.38;;
53052;SDS011;38934;52.690;6.184;2024-02-21T12:30:08;10.02;;;6.93;;
53052;SDS011;38934;52.690;6.184;2024-02-21T12:32:35;11.48;;;7.53;;
53052;SDS011;38934;52.690;6.184;2024-02-21T12:35:01;11.60;;;6.70;;
53052;SDS011;38934;52.690;6.184;2024-02-21T12:37:27;8.88;;;6.25;;
53052;SDS011;38934;52.690;6.184;2024-02-21T12:39:53;8.38;;;6.40;;
53052;SDS011;38934;52.690;6.184;2024-02-21T12:42:19;8.82;;;5.75;;
53052;SDS011;38934;52.690;6.184;2024-02-21T12:44:45;12.57;;;6.32;;
53052;SDS011;38934;52.690;6.184;2024-02-21T12:47:11;9.27;;;6.13;;
53052;SDS011;38934;52.690;6.184;2024-02-21T12:49:37;9.52;;;5.80;;
53052;SDS011;38934;52.690;6.184;2024-02-21T12:52:02;8.98;;;6.15;;
53052;SDS011;38934;52.690;6.184;2024-02-21T12:54:28;9.73;;;6.00;;
53052;SDS011;38934;52.690;6.184;2024-02-21T12:56:55;10.07;;;5.97;;
53052;SDS011;38934;52.690;6.184;2024-02-21T12:59:21;7.28;;;6.18;;
53052;SDS011;38934;52.690;6.184;2024-02-21T13:01:47;9.43;;;6.90;;
53052;SDS011;38934;52.690;6.184;2024-02-21T13:04:13;10.00;;;6.72;;
53052;SDS011;38934;52.690;6.184;2024-02-21T13:06:38;8.88;;;6.22;;
53052;SDS011;38934;52.690;6.184;2024-02-21T13:09:04;8.57;;;6.70;;
53052;SDS011;38934;52.690;6.184;2024-02-21T13:11:33;9.40;;;6.40;;
53052;SDS011;38934;52.690;6.184;2024-02-21T13:13:59;8.82;;;6.82;;
53052;SDS011;38934;52.690;6.184;2024-02-21T13:16:25;10.30;;;7.13;;
53052;SDS011;38934;52.690;6.184;2024-02-21T13:18:54;9.75;;;7.45;;
53052;SDS011;38934;52.690;6.184;2024-02-21T13:21:19;11.25;;;6.90;;
53052;SDS011;38934;52.690;6.184;2024-02-21T13:23:45;10.13;;;6.57;;
53052;SDS011;38934;52.690;6.184;2024-02-21T13:26:11;10.13;;;7.15;;
53052;SDS011;38934;52.690;6.184;2024-02-21T13:28:37;11.13;;;7.78;;
53052;SDS011;38934;52.690;6.184;2024-02-21T13:31:03;12.18;;;7.78;;
53052;SDS011;38934;52.690;6.184;2024-02-21T13:33:29;10.43;;;7.30;;
53052;SDS011;38934;52.690;6.184;2024-02-21T13:35:54;11.75;;;7.72;;
53052;SDS011;38934;52.690;6.184;2024-02-21T13:38:20;10.75;;;7.90;;
53052;SDS011;38934;52.690;6.184;2024-02-21T13:40:45;10.68;;;6.97;;
53052;SDS011;38934;52.690;6.184;2024-02-21T13:43:11;10.82;;;7.22;;
53052;SDS011;38934;52.690;6.184;2024-02-21T13:45:37;11.40;;;7.45;;
53052;SDS011;38934;52.690;6.184;2024-02-21T13:48:03;11.38;;;6.95;;
53052;SDS011;38934;52.690;6.184;2024-02-21T13:50:31;10.93;;;6.97;;
53052;SDS011;38934;52.690;6.184;2024-02-21T13:52:57;12.88;;;7.68;;
53052;SDS011;38934;52.690;6.184;2024-02-21T13:55:23;10.18;;;6.75;;
53052;SDS011;38934;52.690;6.184;2024-02-21T13:57:51;10.63;;;7.03;;
53052;SDS011;38934;52.690;6.184;2024-02-21T14:00:17;9.93;;;6.78;;
53052;SDS011;38934;52.690;6.184;2024-02-21T14:02:43;13.20;;;8.35;;
53052;SDS011;38934;52.690;6.184;2024-02-21T14:05:09;11.05;;;7.00;;
53052;SDS011;38934;52.690;6.184;2024-02-21T14:07:35;11.68;;;7.82;;
53052;SDS011;38934;52.690;6.184;2024-02-21T14:10:00;9.77;;;7.07;;
53052;SDS011;38934;52.690;6.184;2024-02-21T14:12:26;10.65;;;7.20;;
53052;SDS011;38934;52.690;6.184;2024-02-21T14:14:52;11.95;;;7.25;;
53052;SDS011;38934;52.690;6.184;2024-02-21T14:17:18;13.43;;;7.53;;
53052;SDS011;38934;52.690;6.184;2024-02-21T14:19:43;11.43;;;7.82;;
53052;SDS011;38934;52.690;6.184;2024-02-21T14:22:09;11.25;;;7.55;;
53052;SDS011;38934;52.690;6.184;2024-02-21T14:24:36;14.82;;;7.75;;
53052;SDS011;38934;52.690;6.184;2024-02-21T14:27:02;11.18;;;7.70;;
53052;SDS011;38934;52.690;6.184;2024-02-21T14:29:28;16.17;;;7.97;;
53052;SDS011;38934;52.690;6.184;2024-02-21T14:31:54;11.48;;;7.70;;
53052;SDS011;38934;52.690;6.184;2024-02-21T14:34:19;11.88;;;7.45;;
53052;SDS011;38934;52.690;6.184;2024-02-21T14:36:45;12.27;;;7.50;;